createdAt,value
2022-08-05T00:02:21.941Z,24.75
2022-08-05T00:04:55.165Z,24.56
2022-08-05T00:07:59.161Z,24.52
2022-08-05T00:10:09.320Z,24.44
2022-08-05T00:12:56.208Z,24.39
2022-08-05T00:15:55.227Z,24.54
2022-08-05T00:18:09.715Z,24.43
2022-08-05T00:20:48.946Z,24.21
2022-08-05T00:23:15.697Z,24.35
2022-08-05T00:25:46.063Z,24.41
2022-08-05T00:28:13.612Z,24.39
2022-08-05T00:30:41.251Z,24.32
2022-08-05T00:33:15.721Z,24.28
2022-08-05T00:36:16.415Z,24.28
2022-08-05T00:38:44.398Z,24.35
2022-08-05T00:41:11.847Z,24.31
2022-08-05T00:43:47.209Z,24.28
2022-08-05T00:46:16.693Z,24.26
2022-08-05T00:48:50.652Z,23.91
2022-08-05T00:51:51.909Z,23.65
2022-08-05T00:54:06.393Z,23.51
2022-08-05T00:56:33.072Z,23.60
2022-08-05T00:59:00.202Z,23.55
2022-08-05T01:01:48.335Z,23.60
2022-08-05T01:04:15.686Z,23.73
2022-08-05T01:06:46.741Z,23.43
2022-08-05T01:09:19.863Z,23.68
2022-08-05T01:11:49.506Z,23.75
2022-08-05T01:14:31.861Z,23.47
2022-08-05T01:16:59.811Z,23.29
2022-08-05T01:20:00.815Z,23.47
2022-08-05T01:23:15.230Z,23.32
2022-08-05T01:25:53.271Z,23.19
2022-08-05T01:28:23.141Z,23.43
2022-08-05T01:31:07.599Z,23.34
2022-08-05T01:33:49.277Z,22.88
2022-08-05T01:36:28.222Z,22.93
2022-08-05T01:38:56.817Z,22.76
2022-08-05T01:41:33.587Z,23.19
2022-08-05T01:44:02.993Z,23.07
2022-08-05T01:46:42.850Z,23.33
2022-08-05T01:49:23.341Z,23.33
2022-08-05T01:51:56.133Z,23.24
2022-08-05T01:54:32.547Z,23.25
2022-08-05T01:58:11.344Z,23.41
2022-08-05T01:59:49.811Z,23.32
2022-08-05T02:02:20.230Z,23.47
2022-08-05T02:04:58.743Z,23.19
2022-08-05T02:07:25.826Z,23.38
2022-08-05T02:09:57.297Z,23.37
2022-08-05T02:12:43.225Z,23.14
2022-08-05T02:15:19.708Z,23.11
2022-08-05T02:18:28.785Z,23.20
2022-08-05T02:20:58.741Z,22.73
2022-08-05T02:23:33.508Z,22.92
2022-08-05T02:26:03.494Z,22.99
2022-08-05T02:28:38.332Z,22.98
2022-08-05T02:31:15.987Z,23.07
2022-08-05T02:33:57.877Z,23.11
2022-08-05T02:36:27.517Z,23.15
2022-08-05T02:38:57.761Z,23.14
2022-08-05T02:41:28.945Z,23.13
2022-08-05T02:44:13.025Z,23.19
2022-08-05T02:46:43.880Z,22.99
2022-08-05T02:49:21.923Z,22.46
2022-08-05T02:52:03.986Z,22.37
2022-08-05T02:54:37.281Z,22.58
2022-08-05T02:58:11.667Z,22.67
2022-08-05T02:59:57.637Z,22.94
2022-08-05T03:02:37.052Z,22.85
2022-08-05T03:05:06.971Z,22.82
2022-08-05T03:08:01.898Z,22.86
2022-08-05T03:10:25.044Z,22.80
2022-08-05T03:12:53.523Z,22.80
2022-08-05T03:15:20.894Z,22.76
2022-08-05T03:17:54.248Z,22.80
2022-08-05T03:20:24.251Z,22.76
2022-08-05T03:22:51.889Z,22.63
2022-08-05T03:25:32.834Z,22.63
2022-08-05T03:28:08.944Z,22.74
2022-08-05T03:30:36.822Z,22.46
2022-08-05T03:33:06.377Z,22.10
2022-08-05T03:35:40.906Z,21.74
2022-08-05T03:38:12.148Z,22.21
2022-08-05T03:40:48.637Z,22.17
2022-08-05T03:44:09.731Z,22.09
2022-08-05T03:46:05.095Z,21.91
2022-08-05T03:48:35.607Z,21.97
2022-08-05T03:52:39.019Z,21.92
2022-08-05T03:55:51.764Z,21.64
2022-08-05T03:56:54.175Z,19.91
2022-08-05T03:59:47.716Z,20.87
2022-08-05T04:02:38.415Z,21.34
2022-08-05T04:05:09.873Z,21.36
2022-08-05T04:07:57.706Z,21.35
2022-08-05T04:10:30.935Z,21.58
2022-08-05T04:13:03.436Z,22.00
2022-08-05T04:15:32.749Z,22.01
2022-08-05T04:18:03.404Z,22.09
2022-08-05T04:20:30.128Z,22.02
2022-08-05T04:22:58.455Z,22.05
2022-08-05T04:25:57.714Z,22.05
2022-08-05T04:28:12.938Z,22.45
2022-08-05T04:30:39.849Z,22.06
2022-08-05T04:33:09.701Z,22.40
2022-08-05T04:36:16.570Z,22.77
2022-08-05T04:38:39.637Z,23.03
2022-08-05T04:41:07.372Z,23.17
2022-08-05T04:43:37.480Z,22.93
2022-08-05T04:46:07.323Z,22.95
2022-08-05T04:48:34.030Z,22.86
2022-08-05T04:51:02.483Z,22.84
2022-08-05T04:53:33.568Z,22.90
2022-08-05T04:56:33.123Z,22.83
2022-08-05T04:58:51.604Z,23.01
2022-08-05T05:01:19.489Z,23.13
2022-08-05T05:04:06.123Z,23.09
2022-08-05T05:06:40.698Z,23.40
2022-08-05T05:09:14.112Z,23.32
2022-08-05T05:11:55.632Z,23.32
2022-08-05T05:14:31.247Z,23.49
2022-08-05T05:17:03.295Z,23.65
2022-08-05T05:19:36.347Z,23.67
2022-08-05T05:22:24.032Z,23.47
2022-08-05T05:24:59.055Z,23.40
2022-08-05T05:27:45.198Z,23.55
2022-08-05T05:30:29.556Z,23.64
2022-08-05T05:33:00.493Z,23.82
2022-08-05T05:35:29.143Z,23.59
2022-08-05T05:38:09.114Z,23.55
2022-08-05T05:40:43.835Z,23.63
2022-08-05T05:43:22.394Z,23.41
2022-08-05T05:46:03.898Z,23.84
2022-08-05T12:23:09.578Z,30.81
2022-08-05T12:25:56.969Z,31.45
2022-08-05T12:28:39.423Z,31.14
2022-08-05T12:31:06.192Z,31.41
2022-08-05T12:33:36.456Z,31.80
2022-08-05T12:36:08.439Z,32.08
2022-08-05T12:38:40.170Z,31.58
2022-08-05T12:41:13.925Z,31.72
2022-08-05T12:43:58.805Z,31.39
2022-08-05T12:46:28.906Z,31.71
2022-08-05T12:49:12.997Z,32.13
2022-08-05T12:52:14.354Z,32.40
2022-08-05T12:54:49.738Z,32.09
2022-08-05T12:57:17.635Z,32.74
2022-08-05T13:01:57.957Z,32.59
2022-08-05T13:02:37.304Z,31.89
2022-08-05T13:05:07.519Z,31.61
2022-08-05T13:10:21.875Z,30.98
2022-08-05T13:12:51.085Z,31.30
2022-08-05T13:15:41.206Z,31.14
2022-08-05T13:18:19.669Z,31.05
2022-08-05T13:20:49.423Z,31.28
2022-08-05T13:23:18.117Z,31.60
2022-08-05T13:25:52.603Z,31.70
2022-08-05T13:28:27.413Z,31.67
2022-08-05T13:30:54.074Z,31.81
2022-08-05T13:34:21.910Z,31.63
2022-08-05T13:36:10.282Z,31.62
2022-08-05T13:38:42.385Z,32.30
2022-08-05T13:41:09.392Z,31.85
2022-08-05T13:43:44.791Z,31.69
2022-08-05T13:46:13.056Z,32.39
2022-08-05T13:48:57.549Z,31.84
2022-08-05T13:51:29.707Z,32.06
2022-08-05T13:54:12.912Z,31.53
2022-08-05T13:56:45.295Z,31.55
2022-08-05T13:59:21.358Z,31.62
2022-08-05T14:01:57.754Z,31.21
2022-08-05T14:04:49.954Z,31.34
2022-08-05T14:07:56.329Z,31.08
2022-08-05T14:10:28.730Z,31.52
2022-08-05T14:12:57.615Z,31.60
2022-08-05T14:16:08.907Z,31.41
2022-08-05T14:18:17.459Z,31.67
2022-08-05T14:20:47.896Z,31.32
2022-08-05T14:23:23.951Z,31.65
2022-08-05T14:25:54.559Z,32.11
2022-08-05T14:28:26.981Z,32.03
2022-08-05T14:30:54.836Z,32.52
2022-08-05T14:33:22.573Z,32.82
2022-08-05T14:35:51.730Z,32.81
2022-08-05T14:38:32.290Z,32.69
2022-08-05T14:41:06.221Z,32.06
2022-08-05T14:43:59.654Z,32.81
2022-08-05T14:46:28.554Z,32.58
2022-08-05T14:49:06.265Z,32.28
2022-08-05T14:51:35.828Z,32.94
2022-08-05T14:54:26.843Z,33.16
2022-08-05T14:56:51.083Z,33.36
2022-08-05T14:59:21.814Z,33.34
2022-08-05T15:01:49.962Z,32.57
2022-08-05T15:04:22.349Z,32.73
2022-08-05T15:06:51.949Z,32.66
2022-08-05T15:09:51.919Z,32.81
2022-08-05T15:12:08.923Z,32.61
2022-08-05T15:14:42.273Z,32.47
2022-08-05T15:17:44.405Z,32.24
2022-08-05T15:20:04.736Z,32.87
2022-08-05T15:22:31.685Z,32.38
2022-08-05T15:24:59.303Z,32.60
2022-08-05T15:27:26.345Z,32.42
2022-08-05T15:29:59.080Z,32.25
2022-08-05T15:32:28.574Z,32.18
2022-08-05T15:34:55.671Z,31.65
2022-08-05T15:38:32.590Z,31.99
2022-08-05T15:41:03.017Z,31.68
2022-08-05T15:43:09.112Z,31.66
2022-08-05T15:45:45.687Z,31.47
2022-08-05T15:48:14.021Z,31.32
2022-08-05T15:50:43.772Z,31.08
2022-08-05T15:53:12.765Z,31.62
2022-08-05T15:56:02.397Z,32.03
2022-08-05T15:58:28.541Z,31.64
2022-08-05T16:01:11.970Z,31.53
2022-08-05T16:03:42.882Z,31.89
2022-08-05T16:06:11.453Z,32.03
2022-08-05T16:08:38.702Z,32.13
2022-08-05T16:11:07.359Z,32.11
2022-08-05T16:13:35.277Z,32.11
2022-08-05T16:16:03.561Z,31.97
2022-08-05T16:18:32.801Z,31.86
2022-08-05T16:21:04.406Z,31.79
2022-08-05T16:23:32.914Z,31.81
2022-08-05T16:26:18.960Z,31.87
2022-08-05T16:28:53.036Z,31.61
2022-08-05T16:31:22.056Z,31.33
2022-08-05T16:33:49.569Z,31.26
2022-08-05T16:36:20.434Z,31.64
2022-08-05T16:38:54.327Z,31.84
2022-08-05T16:42:12.344Z,31.80
2022-08-05T16:44:13.284Z,31.09
2022-08-05T16:46:41.357Z,31.49
2022-08-05T16:49:23.379Z,31.38
2022-08-05T16:51:50.186Z,31.56
2022-08-05T16:54:25.750Z,31.30
2022-08-05T16:56:54.119Z,31.46
2022-08-05T16:59:20.792Z,31.22
2022-08-05T17:01:54.430Z,30.97
2022-08-05T17:04:27.593Z,31.17
2022-08-05T17:06:56.983Z,31.50
2022-08-05T17:09:29.515Z,31.35
2022-08-05T17:11:59.454Z,31.14
2022-08-05T17:14:36.742Z,31.21
2022-08-05T17:17:05.629Z,31.25
2022-08-05T17:19:32.286Z,30.77
2022-08-05T17:22:01.137Z,30.88
2022-08-05T17:24:38.545Z,30.50
2022-08-05T17:27:10.581Z,30.73
2022-08-05T17:29:40.965Z,30.65
2022-08-05T17:32:17.304Z,30.56
2022-08-05T17:34:47.531Z,30.71
2022-08-05T17:37:39.780Z,30.68
2022-08-05T17:40:10.182Z,30.53
2022-08-05T17:42:41.598Z,30.35
2022-08-05T17:45:20.626Z,30.26
2022-08-05T17:47:53.583Z,30.12
2022-08-05T17:50:28.807Z,30.10
2022-08-05T17:52:59.257Z,30.02
2022-08-05T17:55:34.462Z,29.95
2022-08-05T17:58:09.586Z,29.94
2022-08-05T18:00:45.107Z,29.88
2022-08-05T18:06:06.161Z,29.73
2022-08-05T18:08:40.689Z,29.74
2022-08-05T18:11:23.277Z,29.70
2022-08-05T18:13:51.775Z,29.69
2022-08-05T18:16:22.338Z,29.68
2022-08-05T18:18:50.083Z,29.58
2022-08-05T18:21:19.501Z,29.64
2022-08-05T18:23:47.968Z,29.58
2022-08-05T18:26:14.806Z,29.56
2022-08-05T18:28:46.395Z,29.59
2022-08-05T18:31:13.328Z,29.59
2022-08-05T18:33:46.749Z,29.57
2022-08-05T18:36:15.414Z,29.55
2022-08-05T18:38:45.404Z,29.52
2022-08-05T18:41:56.550Z,29.48
2022-08-05T18:44:05.711Z,29.38
2022-08-05T18:46:34.726Z,29.40
2022-08-05T18:49:21.855Z,29.39
2022-08-05T18:52:08.458Z,29.32
2022-08-05T18:54:35.892Z,29.21
2022-08-05T18:57:09.615Z,29.13
2022-08-05T19:00:03.287Z,29.05
2022-08-05T19:02:29.107Z,29.04
2022-08-05T19:05:02.291Z,28.84
2022-08-05T19:07:48.055Z,28.80
2022-08-05T19:10:16.675Z,28.69
2022-08-05T19:12:44.082Z,28.52
2022-08-05T19:15:56.695Z,28.62
2022-08-05T19:18:10.522Z,28.71
2022-08-05T19:20:41.084Z,28.62
2022-08-05T19:23:08.585Z,28.63
2022-08-05T19:26:01.699Z,28.68
2022-08-05T19:28:29.810Z,28.60
2022-08-05T19:30:57.196Z,28.60
2022-08-05T19:33:35.872Z,28.51
2022-08-05T19:36:06.475Z,28.50
2022-08-05T19:38:35.565Z,28.49
2022-08-05T19:41:07.220Z,28.33
2022-08-05T19:44:06.886Z,28.35
2022-08-05T19:46:29.165Z,28.13
2022-08-05T19:49:02.796Z,28.13
2022-08-05T19:52:06.181Z,28.13
2022-08-05T19:54:26.912Z,28.12
2022-08-05T19:57:06.839Z,28.08
2022-08-05T19:59:56.657Z,28.07
2022-08-05T20:02:26.297Z,27.99
2022-08-05T20:04:55.409Z,27.98
2022-08-05T20:07:45.888Z,27.95
2022-08-05T20:10:14.009Z,27.97
2022-08-05T20:12:45.948Z,28.03
2022-08-05T20:15:13.702Z,27.95
2022-08-05T20:17:40.333Z,27.90
2022-08-05T20:20:09.696Z,27.92
2022-08-05T20:22:37.917Z,27.88
2022-08-05T20:25:09.018Z,27.86
2022-08-05T20:27:41.740Z,27.72
2022-08-05T20:30:10.292Z,27.64
2022-08-05T20:32:37.045Z,27.62
2022-08-05T20:35:11.963Z,27.59
2022-08-05T20:38:05.962Z,27.67
2022-08-05T20:40:26.862Z,27.46
2022-08-05T20:42:53.805Z,27.52
2022-08-05T20:45:56.271Z,27.50
2022-08-05T20:48:16.495Z,27.52
2022-08-05T20:50:45.470Z,27.41
2022-08-05T20:53:16.243Z,27.45
2022-08-05T20:56:08.255Z,27.41
2022-08-05T20:58:36.214Z,27.45
2022-08-05T21:01:04.513Z,27.46
2022-08-05T21:03:34.375Z,27.43
2022-08-05T21:06:02.038Z,27.41
2022-08-05T21:08:41.548Z,27.54
2022-08-05T21:11:15.125Z,27.37
2022-08-05T21:13:59.822Z,27.33
2022-08-05T21:16:29.346Z,27.28
2022-08-05T21:18:59.867Z,27.32
2022-08-05T21:21:43.982Z,27.22
2022-08-05T21:24:17.152Z,27.21
2022-08-05T21:26:53.355Z,27.24
2022-08-05T21:29:26.147Z,27.27
2022-08-05T21:31:53.907Z,27.16
2022-08-05T21:34:20.970Z,27.17
2022-08-05T21:36:49.275Z,27.08
2022-08-05T21:39:16.838Z,27.08
2022-08-05T21:41:52.359Z,27.05
2022-08-05T21:44:27.040Z,27.14
2022-08-05T21:46:55.755Z,27.18
2022-08-05T21:49:56.861Z,27.14
2022-08-05T21:52:15.688Z,27.02
2022-08-05T21:54:44.029Z,26.99
2022-08-05T21:57:33.017Z,27.02
2022-08-05T22:00:06.356Z,27.07
2022-08-05T22:02:33.841Z,27.03
2022-08-05T22:05:00.712Z,26.99
2022-08-05T22:07:39.818Z,26.93
2022-08-05T22:10:16.963Z,26.89
2022-08-05T22:12:44.725Z,26.82
2022-08-05T22:16:01.660Z,26.77
2022-08-05T22:18:05.492Z,26.81
2022-08-05T22:20:32.341Z,26.75
2022-08-05T22:23:21.654Z,26.75
2022-08-05T22:26:09.721Z,26.47
2022-08-05T22:28:38.680Z,26.35
2022-08-05T22:31:06.291Z,26.36
2022-08-05T22:33:57.662Z,26.60
2022-08-05T22:36:23.777Z,26.35
2022-08-05T22:38:51.576Z,25.95
2022-08-05T22:41:26.291Z,26.06
2022-08-05T22:44:08.637Z,26.17
2022-08-05T22:46:39.790Z,26.19
2022-08-05T22:49:23.359Z,26.24
2022-08-05T22:52:04.967Z,26.24
2022-08-05T22:54:37.843Z,26.30
2022-08-05T22:57:06.248Z,26.01
2022-08-05T22:59:44.032Z,25.95
2022-08-05T23:02:16.910Z,25.97
2022-08-05T23:04:51.912Z,25.46
2022-08-05T23:07:21.826Z,25.83
2022-08-05T23:09:57.096Z,25.84
2022-08-05T23:12:32.515Z,25.87
2022-08-05T23:15:03.392Z,26.00
2022-08-05T23:17:34.178Z,25.85
2022-08-05T23:20:10.404Z,25.87
2022-08-05T23:22:47.458Z,25.77
2022-08-05T23:25:52.436Z,25.82
2022-08-05T23:28:06.729Z,25.81
2022-08-05T23:30:40.302Z,25.79
2022-08-05T23:33:16.155Z,25.90
2022-08-05T23:35:50.436Z,25.75
2022-08-05T23:38:18.079Z,25.79
2022-08-05T23:40:50.031Z,25.77
2022-08-05T23:43:25.779Z,25.59
2022-08-05T23:46:20.851Z,25.46
2022-08-05T23:49:01.051Z,25.54
2022-08-05T23:51:52.681Z,25.45
2022-08-05T23:54:38.461Z,25.42
2022-08-05T23:57:06.565Z,25.46
